Time;durP1;ratioP1;P1;durP2;ratioP2;P2;SDS_P1;SDS_P2;PMS_P1;PMS_P2;Temp;Humidity;BMP_temperature;BMP_pressure;BME280_temperature;BME280_humidity;BME280_pressure;Samples;Min_cycle;Max_cycle;Signal;HPM_P1;HPM_P2
2022/03/07 00:02:16;;;;;;;;;;;;;;;5.07;37.93;99316.75;4487265;31;34958;-85
2022/03/07 00:04:44;;;;;;;;;;;;;;;5.28;37.44;99312.38;4498300;31;33512;-79
2022/03/07 00:07:11;;;;;;;;;;;;;;;5.24;37.30;99309.66;4497228;31;34926;-80
2022/03/07 00:09:38;;;;;;;;;;;;;;;5.14;37.76;99323.84;4496686;31;35194;-84
2022/03/07 00:12:05;;;;;;;;;;;;;;;4.32;39.44;99322.47;4495478;31;34151;-83
2022/03/07 00:14:33;;;;;;;;;;;;;;;4.85;38.08;99321.09;4498450;31;33553;-82
2022/03/07 00:17:01;;;;;;;;;;;;;;;5.06;38.02;99322.72;4484403;31;33847;-83
2022/03/07 00:19:29;;;;;;;;;;;;;;;4.15;39.52;99318.31;4496488;31;33925;-85
2022/03/07 00:21:56;;;;;;;;;;;;;;;3.53;40.57;99326.84;4497981;31;34787;-81
2022/03/07 00:24:23;;;;;;;;;;;;;;;5.28;37.11;99321.81;4485333;31;32821;-79
2022/03/07 00:26:51;;;;;;;;;;;;;;;4.91;38.09;99319.56;4494278;31;33074;-81
2022/03/07 00:29:18;;;;;;;;;;;;;;;5.77;36.59;99320.97;4496144;31;34607;-80
2022/03/07 00:31:45;;;;;;;;;;;;;;;5.74;36.56;99329.44;4500095;31;34729;-83
2022/03/07 00:34:12;;;;;;;;;;;;;;;5.13;37.60;99329.81;4491898;31;34251;-85
2022/03/07 00:36:40;;;;;;;;;;;;;;;5.65;36.39;99331.69;4499183;31;34280;-80
2022/03/07 00:39:07;;;;;;;;;;;;;;;6.06;35.67;99321.94;4499537;31;34260;-81
2022/03/07 00:41:34;;;;;;;;;;;;;;;4.92;38.00;99326.44;4492376;31;34277;-87
2022/03/07 00:44:01;;;;;;;;;;;;;;;4.97;37.98;99335.22;4500144;31;33309;-80
2022/03/07 00:46:29;;;;;;;;;;;;;;;5.35;37.23;99321.22;4500086;31;34045;-82
2022/03/07 00:48:56;;;;;;;;;;;;;;;5.32;37.41;99323.66;4500119;31;34379;-80
2022/03/07 00:51:24;;;;;;;;;;;;;;;5.07;38.06;99327.88;4499487;31;35120;-81
2022/03/07 00:53:51;;;;;;;;;;;;;;;5.75;36.79;99323.47;4495440;31;33075;-80
2022/03/07 00:56:18;;;;;;;;;;;;;;;4.92;38.08;99311.03;4505538;31;34016;-79
2022/03/07 00:58:45;;;;;;;;;;;;;;;3.54;41.11;99315.78;4499669;31;34095;-82
2022/03/07 01:01:14;;;;;;;;;;;;;;;4.39;39.78;99328.69;4499013;31;34902;-80
2022/03/07 01:03:42;;;;;;;;;;;;;;;4.67;39.43;99330.66;4497700;31;34269;-82
2022/03/07 01:06:09;;;;;;;;;;;;;;;4.18;40.01;99331.28;4490655;31;34697;-80
2022/03/07 01:08:36;;;;;;;;;;;;;;;3.85;40.40;99315.37;4484981;31;35349;-81
2022/03/07 01:11:04;;;;;;;;;;;;;;;4.76;38.83;99305.31;4497903;31;35195;-84
2022/03/07 01:13:32;;;;;;;;;;;;;;;5.13;37.74;99307.56;4498574;31;32969;-80
2022/03/07 01:15:59;;;;;;;;;;;;;;;5.26;37.26;99308.88;4489126;31;33796;-80
2022/03/07 01:18:26;;;;;;;;;;;;;;;4.87;37.95;99314.31;4487133;31;35446;-81
2022/03/07 01:20:53;;;;;;;;;;;;;;;4.11;39.75;99307.06;4483984;32;34585;-81
2022/03/07 01:23:21;;;;;;;;;;;;;;;5.34;37.63;99307.47;4484156;32;33197;-81
2022/03/07 01:25:48;;;;;;;;;;;;;;;4.66;39.06;99310.94;4497530;31;33965;-81
2022/03/07 01:28:17;;;;;;;;;;;;;;;4.55;39.54;99312.22;4498512;31;34955;-82
2022/03/07 01:30:44;;;;;;;;;;;;;;;3.94;40.59;99312.31;4495258;31;35270;-84
2022/03/07 01:33:12;;;;;;;;;;;;;;;4.27;39.89;99311.12;4499220;31;33727;-82
2022/03/07 01:35:39;;;;;;;;;;;;;;;3.48;40.90;99308.69;4498905;31;34213;-81
2022/03/07 01:38:07;;;;;;;;;;;;;;;3.99;39.80;99311.69;4499960;31;35272;-80
2022/03/07 01:40:34;;;;;;;;;;;;;;;4.09;39.94;99300.09;4499668;31;35194;-80
2022/03/07 01:43:02;;;;;;;;;;;;;;;5.13;38.27;99292.16;4499595;31;34098;-82
2022/03/07 01:45:29;;;;;;;;;;;;;;;5.35;37.78;99292.94;4499189;31;34206;-81
2022/03/07 01:47:56;;;;;;;;;;;;;;;4.79;38.62;99299.44;4499636;31;35180;-80
2022/03/07 01:50:26;;;;;;;;;;;;;;;4.26;39.98;99309.38;4499288;31;34934;-81
2022/03/07 01:52:55;;;;;;;;;;;;;;;4.73;38.65;99294.91;4498613;31;34288;-82
2022/03/07 01:55:23;;;;;;;;;;;;;;;5.64;36.94;99295.62;4497869;31;33964;-81
2022/03/07 01:57:50;;;;;;;;;;;;;;;4.54;39.07;99301.03;4499736;31;34810;-83
2022/03/07 02:00:18;;;;;;;;;;;;;;;5.15;37.79;99292.19;4499370;31;33533;-82
2022/03/07 02:02:46;;;;;;;;;;;;;;;5.30;37.56;99294.44;4489175;31;33318;-83
2022/03/07 02:05:14;;;;;;;;;;;;;;;5.17;37.48;99287.13;4515480;31;33588;-82
2022/03/07 02:07:43;;;;;;;;;;;;;;;5.17;37.74;99298.28;4515550;31;33925;-82
2022/03/07 02:10:11;;;;;;;;;;;;;;;5.68;36.84;99302.63;4513696;31;35018;-83
2022/03/07 02:12:40;;;;;;;;;;;;;;;5.99;36.14;99289.12;4515814;31;33502;-82
2022/03/07 02:15:10;;;;;;;;;;;;;;;6.41;35.32;99287.06;4510810;31;35188;-82
2022/03/07 02:17:37;;;;;;;;;;;;;;;6.14;35.66;99289.63;4498629;31;35364;-84
2022/03/07 02:20:05;;;;;;;;;;;;;;;6.40;35.12;99292.13;4498079;31;34525;-81
2022/03/07 02:22:36;;;;;;;;;;;;;;;5.85;36.26;99293.78;4499681;31;34126;-82
2022/03/07 02:25:04;;;;;;;;;;;;;;;5.66;36.63;99288.84;4495760;31;34290;-85
2022/03/07 02:27:33;;;;;;;;;;;;;;;6.10;35.75;99287.78;4515137;31;35118;-81
2022/03/07 02:30:05;;;;;;;;;;;;;;;6.06;36.08;99296.22;4499931;31;34969;-81
2022/03/07 02:32:33;;;;;;;;;;;;;;;5.97;36.13;99301.06;4499100;31;34149;-82
2022/03/07 02:35:01;;;;;;;;;;;;;;;7.14;34.09;99288.34;4499257;31;33892;-81
2022/03/07 02:37:28;;;;;;;;;;;;;;;7.41;34.05;99282.22;4499077;31;35242;-82
2022/03/07 02:39:56;;;;;;;;;;;;;;;6.71;34.55;99292.28;4493907;31;34370;-83
2022/03/07 02:45:30;;;;;;;;;;;;;;;6.85;34.25;99291.78;4498584;31;33847;-82
2022/03/07 02:47:58;;;;;;;;;;;;;;;6.95;33.91;99286.97;4498850;31;34167;-82
2022/03/07 02:50:25;;;;;;;;;;;;;;;7.16;33.79;99291.87;4499152;31;35284;-82
2022/03/07 02:52:52;;;;;;;;;;;;;;;6.88;34.09;99297.03;4499274;31;33639;-82
2022/03/07 02:55:20;;;;;;;;;;;;;;;7.03;34.04;99302.66;4499552;31;34095;-82
2022/03/07 02:57:47;;;;;;;;;;;;;;;6.87;34.33;99300.47;4498398;31;35498;-85
2022/03/07 03:00:14;;;;;;;;;;;;;;;6.36;34.90;99306.63;4499147;31;34324;-82
2022/03/07 03:02:42;;;;;;;;;;;;;;;5.34;37.15;99309.16;4499025;31;33575;-82
2022/03/07 03:05:09;;;;;;;;;;;;;;;5.96;35.84;99307.06;4498767;31;34038;-82
2022/03/07 03:07:36;;;;;;;;;;;;;;;6.12;35.42;99305.84;4497785;31;35136;-83
2022/03/07 03:10:04;;;;;;;;;;;;;;;5.32;37.02;99311.69;4498988;31;34063;-82
2022/03/07 03:12:32;;;;;;;;;;;;;;;5.09;37.74;99312.53;4495689;31;32797;-81
2022/03/07 03:15:01;;;;;;;;;;;;;;;5.72;36.47;99315.66;4497684;31;34023;-82
2022/03/07 03:17:28;;;;;;;;;;;;;;;6.20;35.70;99312.97;4498420;31;32897;-82
2022/03/07 03:19:56;;;;;;;;;;;;;;;6.15;35.86;99311.09;4498566;31;33891;-82
2022/03/07 03:22:23;;;;;;;;;;;;;;;6.29;35.39;99315.00;4498594;31;33408;-82
2022/03/07 03:24:50;;;;;;;;;;;;;;;5.70;36.20;99317.28;4498482;31;34518;-82
2022/03/07 03:27:17;;;;;;;;;;;;;;;5.91;36.17;99321.41;4497964;31;35233;-81
2022/03/07 03:29:44;;;;;;;;;;;;;;;5.58;36.75;99322.87;4498917;31;34337;-82
2022/03/07 03:32:12;;;;;;;;;;;;;;;6.60;34.99;99326.28;4498214;31;34527;-84
2022/03/07 03:34:39;;;;;;;;;;;;;;;5.31;37.20;99327.94;4498178;31;35064;-82
2022/03/07 03:37:06;;;;;;;;;;;;;;;6.44;35.59;99324.88;4498394;31;35859;-82
2022/03/07 03:39:34;;;;;;;;;;;;;;;5.25;37.12;99332.84;4498664;31;34287;-82
2022/03/07 03:42:01;;;;;;;;;;;;;;;5.98;36.37;99331.13;4498360;31;33043;-83
2022/03/07 03:44:28;;;;;;;;;;;;;;;5.35;36.91;99327.22;4498087;31;34540;-82
2022/03/07 03:46:56;;;;;;;;;;;;;;;6.25;35.39;99321.75;4498423;31;34378;-82
2022/03/07 03:49:23;;;;;;;;;;;;;;;5.71;36.59;99329.31;4498402;31;34463;-81
2022/03/07 03:51:51;;;;;;;;;;;;;;;5.33;37.41;99326.28;4498569;31;33514;-81
2022/03/07 03:54:18;;;;;;;;;;;;;;;6.37;35.61;99328.13;4498557;31;34858;-82
2022/03/07 03:56:45;;;;;;;;;;;;;;;6.53;35.04;99335.50;4497821;31;35114;-81
2022/03/07 03:59:12;;;;;;;;;;;;;;;6.27;35.19;99332.09;4500337;31;35268;-80
2022/03/07 04:01:40;;;;;;;;;;;;;;;6.03;35.66;99327.88;4500328;31;33806;-81
2022/03/07 04:04:07;;;;;;;;;;;;;;;5.49;36.55;99322.56;4500192;31;34975;-81
2022/03/07 04:06:34;;;;;;;;;;;;;;;5.12;37.71;99336.66;4500455;31;34081;-81
2022/03/07 04:09:02;;;;;;;;;;;;;;;6.16;35.72;99336.88;4500507;31;34422;-81
2022/03/07 04:11:29;;;;;;;;;;;;;;;6.58;35.25;99328.78;4499722;31;33473;-81
2022/03/07 04:13:56;;;;;;;;;;;;;;;6.21;35.38;99322.47;4499381;31;34906;-80
2022/03/07 04:16:24;;;;;;;;;;;;;;;6.05;35.66;99325.34;4491728;31;33563;-81
2022/03/07 04:18:51;;;;;;;;;;;;;;;6.26;35.27;99326.06;4514271;31;34874;-81
2022/03/07 04:21:19;;;;;;;;;;;;;;;7.04;34.27;99331.03;4516203;31;34035;-82
2022/03/07 04:23:46;;;;;;;;;;;;;;;7.44;33.34;99327.03;4516233;31;34030;-82
2022/03/07 04:26:16;;;;;;;;;;;;;;;7.68;32.68;99331.09;4510159;31;35617;-81
2022/03/07 04:28:43;;;;;;;;;;;;;;;8.12;32.00;99332.25;4500326;31;34560;-81
2022/03/07 04:31:11;;;;;;;;;;;;;;;8.28;31.66;99325.75;4500190;31;34505;-80
2022/03/07 04:33:39;;;;;;;;;;;;;;;8.61;31.07;99320.56;4500178;31;34235;-80
2022/03/07 04:36:06;;;;;;;;;;;;;;;8.48;31.37;99331.44;4499491;31;34409;-81
2022/03/07 04:38:34;;;;;;;;;;;;;;;8.81;30.86;99321.00;4499315;31;34313;-81
2022/03/07 04:41:02;;;;;;;;;;;;;;;8.89;30.63;99319.47;4499541;31;33982;-81
2022/03/07 04:43:32;;;;;;;;;;;;;;;9.12;30.50;99319.94;4494774;31;34664;-81
2022/03/07 04:46:02;;;;;;;;;;;;;;;8.84;30.26;99322.78;4493924;31;34029;-81
2022/03/07 04:48:29;;;;;;;;;;;;;;;9.15;29.45;99321.72;4495602;31;34939;-81
2022/03/07 04:50:57;;;;;;;;;;;;;;;9.06;30.13;99316.38;4499985;31;33550;-81
2022/03/07 04:53:24;;;;;;;;;;;;;;;9.14;30.17;99320.88;4499799;31;34070;-81
2022/03/07 04:55:51;;;;;;;;;;;;;;;9.59;29.13;99320.03;4499860;31;34384;-81
2022/03/07 04:58:18;;;;;;;;;;;;;;;9.46;29.57;99318.91;4499698;31;34776;-81
2022/03/07 05:00:46;;;;;;;;;;;;;;;9.50;29.35;99318.13;4498537;31;34390;-81
2022/03/07 05:03:15;;;;;;;;;;;;;;;9.64;29.42;99323.56;4499757;31;34471;-81
2022/03/07 05:05:43;;;;;;;;;;;;;;;9.71;29.41;99319.41;4499845;31;34400;-81
2022/03/07 05:08:10;;;;;;;;;;;;;;;9.73;29.31;99318.56;4499785;31;35174;-81
2022/03/07 05:10:37;;;;;;;;;;;;;;;9.87;28.98;99325.72;4499655;31;33654;-81
2022/03/07 05:13:04;;;;;;;;;;;;;;;9.73;28.93;99315.97;4499978;31;34194;-81
2022/03/07 05:15:32;;;;;;;;;;;;;;;9.88;29.02;99322.28;4498465;31;34453;-80
2022/03/07 05:17:59;;;;;;;;;;;;;;;9.83;29.06;99323.91;4499233;31;34327;-82
2022/03/07 05:20:26;;;;;;;;;;;;;;;9.95;29.01;99322.41;4499572;31;34460;-86
2022/03/07 05:23:14;;;;;;;;;;;;;;;9.94;28.88;99320.69;4488609;31;35018;-84
2022/03/07 05:25:41;;;;;;;;;;;;;;;9.74;28.95;99325.50;4499458;31;35193;-81
2022/03/07 05:28:08;;;;;;;;;;;;;;;9.84;28.77;99325.66;4499385;31;35342;-83
2022/03/07 05:30:35;;;;;;;;;;;;;;;9.47;29.11;99324.94;4499233;31;33530;-82
2022/03/07 05:33:02;;;;;;;;;;;;;;;8.84;30.47;99327.97;4499144;31;32674;-82
2022/03/07 05:35:30;;;;;;;;;;;;;;;8.70;30.62;99325.94;4498172;31;34291;-81
2022/03/07 05:37:57;;;;;;;;;;;;;;;9.32;29.95;99319.47;4498680;31;34163;-81
2022/03/07 05:40:24;;;;;;;;;;;;;;;9.15;30.06;99330.34;4497702;31;33400;-81
2022/03/07 05:42:51;;;;;;;;;;;;;;;8.91;30.42;99324.69;4498533;31;33909;-81
2022/03/07 05:45:19;;;;;;;;;;;;;;;9.06;30.25;99335.34;4494329;31;34188;-81
2022/03/07 05:47:46;;;;;;;;;;;;;;;9.18;29.98;99332.16;4494721;31;34181;-81
2022/03/07 05:50:13;;;;;;;;;;;;;;;9.14;30.12;99330.34;4499524;31;33440;-81
2022/03/07 05:52:41;;;;;;;;;;;;;;;9.01;30.28;99331.78;4498514;31;34128;-83
2022/03/07 05:55:08;;;;;;;;;;;;;;;8.75;30.67;99333.78;4499327;31;34719;-83
2022/03/07 05:57:35;;;;;;;;;;;;;;;9.20;30.18;99323.56;4498499;31;34254;-83
2022/03/07 06:00:04;;;;;;;;;;;;;;;8.77;30.29;99335.56;4498474;31;34470;-86
2022/03/07 06:02:32;;;;;;;;;;;;;;;8.85;30.43;99327.12;4490389;31;33919;-82
2022/03/07 06:04:59;;;;;;;;;;;;;;;7.86;32.20;99335.88;4498124;31;34153;-81
2022/03/07 06:07:26;;;;;;;;;;;;;;;8.66;31.29;99334.44;4498965;31;35303;-81
2022/03/07 06:09:54;;;;;;;;;;;;;;;8.68;31.01;99332.78;4499005;31;34529;-81
2022/03/07 06:12:21;;;;;;;;;;;;;;;8.62;31.37;99339.53;4498809;31;34333;-81
2022/03/07 06:14:48;;;;;;;;;;;;;;;8.62;31.14;99342.97;4499437;31;34374;-82
2022/03/07 06:17:15;;;;;;;;;;;;;;;8.17;31.69;99337.53;4498937;31;34507;-80
2022/03/07 06:19:42;;;;;;;;;;;;;;;8.04;32.05;99351.84;4498640;31;33479;-82
2022/03/07 06:22:10;;;;;;;;;;;;;;;7.47;32.94;99352.03;4498901;31;34906;-81
2022/03/07 06:24:37;;;;;;;;;;;;;;;7.21;33.50;99349.59;4498543;31;34345;-81
2022/03/07 06:27:06;;;;;;;;;;;;;;;8.10;32.24;99356.28;4498899;31;35076;-82
2022/03/07 06:29:33;;;;;;;;;;;;;;;8.25;32.01;99357.53;4499453;31;33177;-81
2022/03/07 06:32:03;;;;;;;;;;;;;;;7.57;33.08;99357.47;4499264;31;33662;-81
2022/03/07 06:34:33;;;;;;;;;;;;;;;8.24;31.91;99365.28;4498850;31;34821;-81
2022/03/07 06:37:01;;;;;;;;;;;;;;;6.55;34.82;99369.88;4497365;31;33938;-81
2022/03/07 06:39:28;;;;;;;;;;;;;;;7.48;33.41;99364.09;4483705;31;33350;-81
2022/03/07 06:41:55;;;;;;;;;;;;;;;8.20;32.13;99359.16;4497983;31;34150;-81
2022/03/07 06:44:23;;;;;;;;;;;;;;;7.71;33.00;99363.03;4485560;31;34468;-84
2022/03/07 06:46:50;;;;;;;;;;;;;;;8.03;32.55;99375.91;4497874;31;34200;-82
2022/03/07 06:49:17;;;;;;;;;;;;;;;8.60;31.65;99356.69;4498958;31;33530;-81
2022/03/07 06:51:45;;;;;;;;;;;;;;;8.68;31.33;99363.81;4499238;31;35078;-81
2022/03/07 06:54:12;;;;;;;;;;;;;;;8.89;31.18;99355.66;4499325;31;34294;-82
2022/03/07 06:56:39;;;;;;;;;;;;;;;8.56;31.99;99362.63;4499048;31;34590;-81
2022/03/07 06:59:07;;;;;;;;;;;;;;;8.37;31.87;99369.94;4499358;31;33672;-82
2022/03/07 07:01:34;;;;;;;;;;;;;;;8.63;31.77;99373.12;4499065;31;34318;-82
2022/03/07 07:04:01;;;;;;;;;;;;;;;7.21;33.86;99370.22;4498546;31;34512;-81
2022/03/07 07:06:29;;;;;;;;;;;;;;;7.94;32.89;99366.22;4498997;31;34364;-81
2022/03/07 07:08:56;;;;;;;;;;;;;;;8.35;32.43;99369.00;4498811;31;34399;-81
2022/03/07 07:11:23;;;;;;;;;;;;;;;7.84;33.00;99376.25;4498827;31;33949;-81
2022/03/07 07:13:50;;;;;;;;;;;;;;;5.28;37.67;99376.66;4498909;31;34953;-82
2022/03/07 07:16:18;;;;;;;;;;;;;;;7.36;34.05;99376.66;4497977;31;34221;-82
2022/03/07 07:18:45;;;;;;;;;;;;;;;7.70;33.89;99369.03;4498890;31;33377;-82
2022/03/07 07:21:12;;;;;;;;;;;;;;;8.34;32.72;99369.84;4499045;31;33885;-82
2022/03/07 07:23:39;;;;;;;;;;;;;;;8.05;32.55;99369.09;4498950;31;34042;-83
2022/03/07 07:26:07;;;;;;;;;;;;;;;8.48;32.13;99375.34;4498815;31;34209;-82
2022/03/07 07:28:34;;;;;;;;;;;;;;;8.49;32.01;99378.00;4498966;31;34441;-82
2022/03/07 07:31:01;;;;;;;;;;;;;;;7.22;33.99;99377.13;4498878;31;34167;-86
2022/03/07 07:33:29;;;;;;;;;;;;;;;7.97;33.16;99381.81;4483783;31;35104;-82
2022/03/07 07:35:56;;;;;;;;;;;;;;;8.23;32.63;99389.34;4497286;31;35240;-82
2022/03/07 07:38:23;;;;;;;;;;;;;;;8.21;32.35;99391.87;4498406;31;34335;-83
2022/03/07 07:40:51;;;;;;;;;;;;;;;8.48;32.17;99396.03;4498808;31;33805;-82
2022/03/07 07:43:18;;;;;;;;;;;;;;;8.28;32.47;99404.13;4498617;31;33984;-86
2022/03/07 07:45:45;;;;;;;;;;;;;;;9.04;31.54;99399.09;4498627;31;34041;-83
2022/03/07 07:48:12;;;;;;;;;;;;;;;8.44;32.03;99401.97;4498508;31;34269;-82
2022/03/07 07:50:40;;;;;;;;;;;;;;;8.11;32.88;99407.13;4498520;31;35142;-82
2022/03/07 07:53:07;;;;;;;;;;;;;;;8.27;32.61;99407.56;4498301;31;34424;-83
2022/03/07 07:55:34;;;;;;;;;;;;;;;8.67;31.70;99402.53;4498231;31;35153;-82
2022/03/07 07:58:02;;;;;;;;;;;;;;;7.98;32.84;99399.03;4498370;31;33634;-87
2022/03/07 08:00:29;;;;;;;;;;;;;;;8.52;31.81;99411.66;4497114;31;33895;-83
2022/03/07 08:02:56;;;;;;;;;;;;;;;9.06;30.47;99415.53;4498173;31;35246;-86
2022/03/07 08:05:24;;;;;;;;;;;;;;;8.40;31.74;99419.09;4498291;31;35187;-82
2022/03/07 08:07:51;;;;;;;;;;;;;;;9.05;30.76;99421.50;4498231;31;34233;-82
2022/03/07 08:10:18;;;;;;;;;;;;;;;8.83;31.13;99424.47;4498713;31;33957;-82
2022/03/07 08:12:45;;;;;;;;;;;;;;;8.21;31.93;99437.50;4498338;31;35827;-82
2022/03/07 08:15:18;;;;;;;;;;;;;;;7.88;32.48;99425.44;4498323;31;34442;-82
2022/03/07 08:17:49;;;;;;;;;;;;;;;7.58;33.29;99438.38;4496730;31;33868;-82
2022/03/07 08:20:17;;;;;;;;;;;;;;;6.63;35.47;99439.69;4496777;31;34874;-82
2022/03/07 08:22:45;;;;;;;;;;;;;;;7.41;33.63;99434.41;4497768;31;34189;-82
2022/03/07 08:25:12;;;;;;;;;;;;;;;7.20;34.51;99440.69;4498246;31;35471;-82
2022/03/07 08:27:39;;;;;;;;;;;;;;;6.97;34.94;99447.69;4497766;31;33683;-82
2022/03/07 08:30:08;;;;;;;;;;;;;;;7.87;33.63;99435.72;4497831;31;34278;-82
2022/03/07 08:32:35;;;;;;;;;;;;;;;7.71;32.96;99430.13;4497986;31;33978;-82
2022/03/07 08:35:03;;;;;;;;;;;;;;;7.84;32.89;99430.47;4497712;31;33850;-82
2022/03/07 08:37:32;;;;;;;;;;;;;;;7.35;33.54;99424.78;4497806;31;33666;-82
2022/03/07 08:40:00;;;;;;;;;;;;;;;6.77;35.35;99423.84;4497774;31;33802;-82
2022/03/07 08:42:27;;;;;;;;;;;;;;;8.19;32.49;99400.44;4497873;31;34542;-82
2022/03/07 08:44:54;;;;;;;;;;;;;;;8.34;31.90;99411.16;4498879;31;34179;-82
2022/03/07 08:47:21;;;;;;;;;;;;;;;8.59;31.98;99404.91;4500026;31;33950;-82
2022/03/07 08:49:49;;;;;;;;;;;;;;;7.26;34.17;99402.16;4499905;31;34605;-82
2022/03/07 08:52:16;;;;;;;;;;;;;;;7.79;33.24;99404.53;4499915;31;34618;-82
2022/03/07 08:54:44;;;;;;;;;;;;;;;8.61;32.04;99408.44;4500245;31;34465;-82
2022/03/07 08:57:11;;;;;;;;;;;;;;;8.17;32.82;99405.56;4500118;31;33522;-82
2022/03/07 08:59:38;;;;;;;;;;;;;;;8.66;31.92;99417.16;4499729;31;34922;-82
2022/03/07 09:02:06;;;;;;;;;;;;;;;8.28;31.80;99419.63;4500289;31;34285;-82
2022/03/07 09:04:33;;;;;;;;;;;;;;;7.13;34.02;99418.12;4499543;31;35345;-82
2022/03/07 09:07:00;;;;;;;;;;;;;;;6.58;35.27;99419.81;4499965;31;33710;-82
2022/03/07 09:09:28;;;;;;;;;;;;;;;8.03;33.16;99412.97;4499926;31;34210;-82
2022/03/07 09:12:00;;;;;;;;;;;;;;;8.48;32.59;99416.69;4500271;31;34754;-82
2022/03/07 09:14:27;;;;;;;;;;;;;;;7.63;33.63;99410.97;4499660;31;35239;-82
2022/03/07 09:17:13;;;;;;;;;;;;;;;6.07;36.27;99417.25;4499727;31;34304;-82
2022/03/07 09:19:40;;;;;;;;;;;;;;;6.52;35.74;99411.03;4499630;31;33702;-82
2022/03/07 09:22:08;;;;;;;;;;;;;;;7.34;34.16;99406.69;4499921;31;34523;-82
2022/03/07 09:24:35;;;;;;;;;;;;;;;7.68;33.90;99409.38;4500292;31;34607;-82
2022/03/07 09:27:02;;;;;;;;;;;;;;;6.57;35.46;99404.31;4499683;31;33228;-82
2022/03/07 09:29:30;;;;;;;;;;;;;;;6.56;35.65;99406.03;4499751;31;33969;-82
2022/03/07 09:32:00;;;;;;;;;;;;;;;6.75;35.22;99404.91;4499773;31;34411;-82
2022/03/07 09:34:28;;;;;;;;;;;;;;;7.40;33.83;99404.28;4499459;31;34108;-82
2022/03/07 09:36:55;;;;;;;;;;;;;;;6.82;34.78;99412.00;4499805;31;33732;-83
2022/03/07 09:39:22;;;;;;;;;;;;;;;5.23;37.96;99421.87;4499718;31;34595;-82
2022/03/07 09:41:49;;;;;;;;;;;;;;;6.32;36.99;99411.22;4499437;31;34102;-82
2022/03/07 09:44:16;;;;;;;;;;;;;;;7.14;34.91;99403.50;4499647;31;33905;-87
2022/03/07 09:46:44;;;;;;;;;;;;;;;7.58;33.80;99407.41;4499676;31;33585;-83
2022/03/07 09:49:11;;;;;;;;;;;;;;;7.22;34.58;99399.44;4498121;31;34814;-82
2022/03/07 09:51:38;;;;;;;;;;;;;;;6.53;35.78;99399.91;4499645;31;35113;-82
2022/03/07 09:54:06;;;;;;;;;;;;;;;6.88;35.06;99402.72;4499597;31;35142;-82
2022/03/07 09:56:34;;;;;;;;;;;;;;;6.75;36.21;99401.47;4497955;31;33489;-82
2022/03/07 09:59:01;;;;;;;;;;;;;;;7.67;34.35;99397.31;4499549;31;34147;-82
2022/03/07 10:01:28;;;;;;;;;;;;;;;6.52;35.84;99404.16;4499430;31;35440;-82
2022/03/07 10:04:09;;;;;;;;;;;;;;;6.76;35.52;99406.66;4499228;31;34562;-82
2022/03/07 10:06:36;;;;;;;;;;;;;;;6.81;36.10;99409.38;4499575;31;33543;-83
2022/03/07 10:09:04;;;;;;;;;;;;;;;6.31;36.92;99408.59;4499527;31;33928;-82
2022/03/07 10:11:32;;;;;;;;;;;;;;;6.02;37.46;99413.66;4498233;31;34502;-82
2022/03/07 10:14:02;;;;;;;;;;;;;;;5.55;38.79;99409.34;4499476;31;35109;-82
2022/03/07 10:16:37;;;;;;;;;;;;;;;6.48;37.09;99399.75;4499164;31;33570;-82
2022/03/07 10:19:22;;;;;;;;;;;;;;;6.46;35.94;99400.50;4499742;31;34800;-82
2022/03/07 10:21:50;;;;;;;;;;;;;;;6.40;37.02;99400.31;4499128;31;33851;-86
2022/03/07 10:24:18;;;;;;;;;;;;;;;6.81;36.00;99397.34;4498138;31;34962;-88
2022/03/07 10:26:45;;;;;;;;;;;;;;;5.62;38.41;99396.75;4498372;31;33591;-82
2022/03/07 10:29:12;;;;;;;;;;;;;;;5.92;38.14;99400.38;4497967;31;34380;-83
2022/03/07 10:31:58;;;;;;;;;;;;;;;6.99;35.49;99403.91;4499352;31;33942;-82
2022/03/07 10:34:26;;;;;;;;;;;;;;;5.88;37.03;99394.25;4499138;31;34540;-87
2022/03/07 10:36:53;;;;;;;;;;;;;;;6.29;36.67;99395.69;4499321;31;34322;-82
2022/03/07 10:39:22;;;;;;;;;;;;;;;7.21;34.85;99396.00;4499202;31;35110;-83
2022/03/07 10:41:49;;;;;;;;;;;;;;;6.81;35.53;99384.47;4499231;31;34171;-82
2022/03/07 10:44:29;;;;;;;;;;;;;;;8.04;33.21;99382.84;4499003;31;34556;-82
2022/03/07 10:47:07;;;;;;;;;;;;;;;7.73;33.88;99384.59;4497688;31;34442;-83
2022/03/07 10:49:34;;;;;;;;;;;;;;;7.63;33.68;99367.09;4499179;31;35253;-82
2022/03/07 10:52:03;;;;;;;;;;;;;;;7.48;34.22;99375.28;4499196;31;34432;-88
2022/03/07 10:54:34;;;;;;;;;;;;;;;6.06;36.69;99378.56;4499138;31;34778;-85
2022/03/07 10:57:02;;;;;;;;;;;;;;;6.73;35.29;99370.47;4499212;31;34533;-82
2022/03/07 10:59:30;;;;;;;;;;;;;;;5.42;37.55;99365.97;4499209;31;34915;-82
2022/03/07 11:02:14;;;;;;;;;;;;;;;6.55;35.41;99357.91;4499062;31;34698;-82
2022/03/07 11:04:42;;;;;;;;;;;;;;;6.55;35.71;99365.62;4497873;31;35156;-82
2022/03/07 11:07:09;;;;;;;;;;;;;;;5.56;37.80;99352.81;4498311;31;33625;-82
2022/03/07 11:09:36;;;;;;;;;;;;;;;6.61;35.49;99349.50;4499088;31;34040;-82
2022/03/07 11:12:04;;;;;;;;;;;;;;;6.77;35.27;99343.09;4499015;31;35278;-82
2022/03/07 11:14:32;;;;;;;;;;;;;;;7.12;35.20;99346.72;4498686;31;34845;-82
2022/03/07 11:16:59;;;;;;;;;;;;;;;6.11;36.10;99351.31;4497731;31;34033;-82
2022/03/07 11:19:27;;;;;;;;;;;;;;;5.42;37.77;99348.00;4497712;31;33979;-82
2022/03/07 11:21:55;;;;;;;;;;;;;;;5.87;37.21;99346.16;4498631;31;34325;-82
2022/03/07 11:24:23;;;;;;;;;;;;;;;5.96;36.99;99335.34;4498857;31;35072;-82
2022/03/07 11:26:51;;;;;;;;;;;;;;;6.91;34.82;99328.06;4497620;31;33609;-82
2022/03/07 11:29:18;;;;;;;;;;;;;;;5.39;37.66;99332.47;4497191;31;34913;-85
2022/03/07 11:31:46;;;;;;;;;;;;;;;5.85;37.05;99322.97;4499095;31;34367;-87
2022/03/07 11:34:14;;;;;;;;;;;;;;;6.98;34.77;99317.13;4498737;31;35177;-83
2022/03/07 11:36:44;;;;;;;;;;;;;;;6.18;35.75;99313.78;4498590;31;34344;-82
2022/03/07 11:39:12;;;;;;;;;;;;;;;6.16;36.33;99315.41;4498896;31;33888;-83
2022/03/07 11:41:39;;;;;;;;;;;;;;;5.44;37.58;99316.38;4498788;31;33979;-82
2022/03/07 11:44:09;;;;;;;;;;;;;;;5.92;36.51;99307.75;4498473;31;33967;-82
2022/03/07 11:46:36;;;;;;;;;;;;;;;5.47;37.09;99305.34;4498839;31;33360;-83
2022/03/07 11:49:05;;;;;;;;;;;;;;;5.76;37.05;99307.22;4498538;31;34940;-82
2022/03/07 11:51:33;;;;;;;;;;;;;;;5.93;37.29;99304.38;4498705;31;35156;-82
2022/03/07 11:54:00;;;;;;;;;;;;;;;6.59;35.21;99294.47;4498316;31;34328;-82
2022/03/07 11:56:29;;;;;;;;;;;;;;;5.99;36.62;99304.59;4498155;31;34065;-82
2022/03/07 11:58:57;;;;;;;;;;;;;;;6.09;36.36;99311.75;4498241;31;33933;-85
2022/03/07 12:01:27;;;;;;;;;;;;;;;6.45;35.14;99308.63;4497710;31;34552;-82
2022/03/07 12:03:55;;;;;;;;;;;;;;;6.65;35.37;99291.22;4497778;31;34008;-82
2022/03/07 12:06:22;;;;;;;;;;;;;;;6.81;34.78;99299.44;4496659;31;34243;-82
2022/03/07 12:08:54;;;;;;;;;;;;;;;7.74;33.02;99296.03;4498082;31;33976;-83
2022/03/07 12:11:28;;;;;;;;;;;;;;;6.42;34.81;99299.09;4496439;31;34359;-82
2022/03/07 12:14:02;;;;;;;;;;;;;;;7.50;33.32;99297.94;4497597;31;34524;-82
2022/03/07 12:16:33;;;;;;;;;;;;;;;7.72;33.39;99296.81;4496694;31;33635;-85
2022/03/07 12:19:13;;;;;;;;;;;;;;;7.61;33.12;99299.09;4498888;31;34155;-83
2022/03/07 12:21:43;;;;;;;;;;;;;;;7.11;34.26;99295.13;4500173;31;35198;-82
2022/03/07 12:24:12;;;;;;;;;;;;;;;7.54;33.54;99292.06;4498590;31;34725;-82
2022/03/07 12:26:49;;;;;;;;;;;;;;;7.38;33.64;99289.88;4499670;31;33074;-82
2022/03/07 12:29:17;;;;;;;;;;;;;;;7.32;33.47;99286.31;4499696;31;34180;-84
2022/03/07 12:31:51;;;;;;;;;;;;;;;7.35;33.88;99280.38;4499837;31;34385;-83
2022/03/07 12:34:25;;;;;;;;;;;;;;;7.17;33.64;99269.53;4499418;31;34333;-82
2022/03/07 12:37:10;;;;;;;;;;;;;;;8.31;31.93;99273.31;4485421;31;33069;-82
2022/03/07 12:39:48;;;;;;;;;;;;;;;7.01;33.96;99275.97;4499209;31;33880;-82
2022/03/07 12:42:17;;;;;;;;;;;;;;;5.96;35.69;99278.75;4499180;31;34174;-82
2022/03/07 12:44:45;;;;;;;;;;;;;;;6.41;35.31;99281.03;4499317;31;35123;-83
2022/03/07 12:47:12;;;;;;;;;;;;;;;6.92;34.16;99271.41;4499786;31;33400;-82
2022/03/07 12:49:39;;;;;;;;;;;;;;;5.98;35.36;99277.94;4500134;31;33755;-82
2022/03/07 12:52:08;;;;;;;;;;;;;;;5.48;36.62;99279.66;4500601;31;34030;-83
2022/03/07 12:54:36;;;;;;;;;;;;;;;6.08;35.53;99279.13;4498702;31;34584;-82
2022/03/07 12:57:04;;;;;;;;;;;;;;;5.86;36.10;99275.81;4472666;31;872312;-81
2022/03/07 12:59:32;;;;;;;;;;;;;;;6.31;35.08;99278.16;4500054;31;33914;-82
2022/03/07 13:02:00;;;;;;;;;;;;;;;5.93;36.07;99276.06;4499736;31;34954;-82
2022/03/07 13:04:30;;;;;;;;;;;;;;;6.44;35.21;99268.22;4498650;31;34528;-82
2022/03/07 13:06:58;;;;;;;;;;;;;;;5.95;35.51;99264.13;4500072;31;33648;-82